Aurora, Maine
Current Conditions -  °F | °C
As of 8:05 AM on Thursday 27 Nov 2014 (Local Time) from KBGR Reporting Station
Light Snow Light Snow  
Wind Chill: 16°   Ceiling: 3200
Heat Index: 28°   Visibility: 3mi
Dew Point: 24°   Wind: 16mph
Humidity: 85%   Direction: 340°NNW
Pressure: 29.78"   Gusts: 25mph
Location:  44.85°N, 68.33°W
Report Text: KBGR 271305Z 34014G22KT 3SM -SN BR FEW015 BKN032 BKN040 M02/M04 A2978 RMK AO2 P0000 T10221044 $
Loading
Personal Weather Stations






























Interactive Weather Map New forecast layout! Learn more

10-Day Weather Forecast

Advertisements
Track Severe Weather on mobile